sensor_id;sensor_type;location;lat;lon;timestamp;P1;durP1;ratioP1;P2;durP2;ratioP2
16662;SDS011;8445;51.270;9.434;2023-04-01T00:00:49;6.05;;;2.05;;
16662;SDS011;8445;51.270;9.434;2023-04-01T00:03:17;4.53;;;1.40;;
16662;SDS011;8445;51.270;9.434;2023-04-01T00:05:43;6.63;;;2.20;;
16662;SDS011;8445;51.270;9.434;2023-04-01T00:08:08;4.60;;;1.80;;
16662;SDS011;8445;51.270;9.434;2023-04-01T00:10:34;8.32;;;1.98;;
16662;SDS011;8445;51.270;9.434;2023-04-01T00:13:00;6.30;;;1.88;;
16662;SDS011;8445;51.270;9.434;2023-04-01T00:15:25;6.25;;;1.92;;
16662;SDS011;8445;51.270;9.434;2023-04-01T00:17:51;5.35;;;1.90;;
16662;SDS011;8445;51.270;9.434;2023-04-01T00:20:16;8.65;;;2.30;;
16662;SDS011;8445;51.270;9.434;2023-04-01T00:22:42;4.53;;;2.03;;
16662;SDS011;8445;51.270;9.434;2023-04-01T00:25:08;4.55;;;1.90;;
16662;SDS011;8445;51.270;9.434;2023-04-01T00:27:34;4.05;;;1.60;;
16662;SDS011;8445;51.270;9.434;2023-04-01T00:30:00;5.60;;;1.85;;
16662;SDS011;8445;51.270;9.434;2023-04-01T00:32:26;2.85;;;1.50;;
16662;SDS011;8445;51.270;9.434;2023-04-01T00:34:52;5.47;;;2.47;;
16662;SDS011;8445;51.270;9.434;2023-04-01T00:37:18;4.07;;;1.80;;
16662;SDS011;8445;51.270;9.434;2023-04-01T00:39:46;3.08;;;1.60;;
16662;SDS011;8445;51.270;9.434;2023-04-01T00:42:14;6.80;;;2.13;;
16662;SDS011;8445;51.270;9.434;2023-04-01T00:44:40;5.63;;;2.10;;
16662;SDS011;8445;51.270;9.434;2023-04-01T00:47:06;8.55;;;2.53;;
16662;SDS011;8445;51.270;9.434;2023-04-01T00:49:33;5.88;;;2.33;;
16662;SDS011;8445;51.270;9.434;2023-04-01T00:52:03;3.95;;;1.77;;
16662;SDS011;8445;51.270;9.434;2023-04-01T00:54:30;4.78;;;1.77;;
16662;SDS011;8445;51.270;9.434;2023-04-01T00:59:26;4.93;;;1.80;;
16662;SDS011;8445;51.270;9.434;2023-04-01T01:01:55;6.18;;;1.63;;
16662;SDS011;8445;51.270;9.434;2023-04-01T01:04:31;6.95;;;2.22;;
16662;SDS011;8445;51.270;9.434;2023-04-01T01:07:12;6.22;;;1.88;;
16662;SDS011;8445;51.270;9.434;2023-04-01T01:10:08;3.55;;;2.00;;
16662;SDS011;8445;51.270;9.434;2023-04-01T01:12:52;5.97;;;2.00;;
16662;SDS011;8445;51.270;9.434;2023-04-01T01:15:52;3.67;;;1.77;;
16662;SDS011;8445;51.270;9.434;2023-04-01T01:18:33;6.18;;;2.33;;
16662;SDS011;8445;51.270;9.434;2023-04-01T01:21:07;5.20;;;2.20;;
16662;SDS011;8445;51.270;9.434;2023-04-01T01:32:00;5.40;;;2.15;;
16662;SDS011;8445;51.270;9.434;2023-04-01T01:37:45;8.15;;;3.28;;
16662;SDS011;8445;51.270;9.434;2023-04-01T01:40:12;6.15;;;2.25;;
16662;SDS011;8445;51.270;9.434;2023-04-01T01:42:43;7.55;;;2.25;;
16662;SDS011;8445;51.270;9.434;2023-04-01T01:45:14;5.82;;;2.55;;
16662;SDS011;8445;51.270;9.434;2023-04-01T01:47:44;5.65;;;2.55;;
16662;SDS011;8445;51.270;9.434;2023-04-01T01:50:11;6.03;;;2.40;;
16662;SDS011;8445;51.270;9.434;2023-04-01T01:52:38;7.72;;;2.13;;
16662;SDS011;8445;51.270;9.434;2023-04-01T01:55:22;8.25;;;2.95;;
16662;SDS011;8445;51.270;9.434;2023-04-01T01:57:51;6.45;;;2.45;;
16662;SDS011;8445;51.270;9.434;2023-04-01T02:00:17;7.43;;;3.10;;
16662;SDS011;8445;51.270;9.434;2023-04-01T02:02:46;6.82;;;3.03;;
16662;SDS011;8445;51.270;9.434;2023-04-01T02:05:21;6.70;;;3.42;;
16662;SDS011;8445;51.270;9.434;2023-04-01T02:07:52;6.43;;;2.97;;
16662;SDS011;8445;51.270;9.434;2023-04-01T02:10:25;7.63;;;3.08;;
16662;SDS011;8445;51.270;9.434;2023-04-01T02:12:54;6.88;;;3.75;;
16662;SDS011;8445;51.270;9.434;2023-04-01T02:15:26;6.50;;;3.00;;
16662;SDS011;8445;51.270;9.434;2023-04-01T02:17:56;10.32;;;3.42;;
16662;SDS011;8445;51.270;9.434;2023-04-01T02:20:22;6.55;;;3.10;;
16662;SDS011;8445;51.270;9.434;2023-04-01T02:22:53;5.45;;;3.42;;
16662;SDS011;8445;51.270;9.434;2023-04-01T02:25:22;7.90;;;3.05;;
16662;SDS011;8445;51.270;9.434;2023-04-01T02:27:53;8.45;;;3.53;;
16662;SDS011;8445;51.270;9.434;2023-04-01T02:30:22;10.07;;;3.70;;
16662;SDS011;8445;51.270;9.434;2023-04-01T02:32:48;8.77;;;3.20;;
16662;SDS011;8445;51.270;9.434;2023-04-01T02:35:15;6.63;;;2.58;;
16662;SDS011;8445;51.270;9.434;2023-04-01T02:37:42;7.80;;;3.42;;
16662;SDS011;8445;51.270;9.434;2023-04-01T02:40:13;7.80;;;3.00;;
16662;SDS011;8445;51.270;9.434;2023-04-01T02:42:39;6.72;;;3.15;;
16662;SDS011;8445;51.270;9.434;2023-04-01T02:45:06;7.93;;;3.50;;
16662;SDS011;8445;51.270;9.434;2023-04-01T02:47:32;6.45;;;2.90;;
16662;SDS011;8445;51.270;9.434;2023-04-01T02:49:57;3.88;;;2.83;;
16662;SDS011;8445;51.270;9.434;2023-04-01T02:52:27;9.10;;;3.28;;
16662;SDS011;8445;51.270;9.434;2023-04-01T02:54:54;6.22;;;2.67;;
16662;SDS011;8445;51.270;9.434;2023-04-01T02:57:21;8.30;;;3.25;;
16662;SDS011;8445;51.270;9.434;2023-04-01T02:59:47;10.52;;;3.58;;
16662;SDS011;8445;51.270;9.434;2023-04-01T03:02:13;5.68;;;3.13;;
16662;SDS011;8445;51.270;9.434;2023-04-01T03:04:39;7.85;;;3.00;;
16662;SDS011;8445;51.270;9.434;2023-04-01T03:07:05;5.88;;;3.20;;
16662;SDS011;8445;51.270;9.434;2023-04-01T03:09:30;5.80;;;2.28;;
16662;SDS011;8445;51.270;9.434;2023-04-01T03:11:56;5.57;;;3.03;;
16662;SDS011;8445;51.270;9.434;2023-04-01T03:14:21;6.65;;;2.78;;
16662;SDS011;8445;51.270;9.434;2023-04-01T03:16:47;5.82;;;2.63;;
16662;SDS011;8445;51.270;9.434;2023-04-01T03:19:12;6.28;;;3.13;;
16662;SDS011;8445;51.270;9.434;2023-04-01T03:21:40;6.43;;;2.92;;
16662;SDS011;8445;51.270;9.434;2023-04-01T03:24:06;4.82;;;2.88;;
16662;SDS011;8445;51.270;9.434;2023-04-01T03:26:31;6.10;;;2.78;;
16662;SDS011;8445;51.270;9.434;2023-04-01T03:28:57;4.57;;;2.20;;
16662;SDS011;8445;51.270;9.434;2023-04-01T03:31:23;7.13;;;2.50;;
16662;SDS011;8445;51.270;9.434;2023-04-01T03:33:53;6.45;;;2.95;;
16662;SDS011;8445;51.270;9.434;2023-04-01T03:36:19;4.25;;;2.53;;
16662;SDS011;8445;51.270;9.434;2023-04-01T03:38:45;9.75;;;3.28;;
16662;SDS011;8445;51.270;9.434;2023-04-01T03:41:15;8.27;;;3.03;;
16662;SDS011;8445;51.270;9.434;2023-04-01T03:43:42;6.07;;;2.65;;
16662;SDS011;8445;51.270;9.434;2023-04-01T03:46:09;4.47;;;2.53;;
16662;SDS011;8445;51.270;9.434;2023-04-01T03:48:35;6.85;;;3.33;;
16662;SDS011;8445;51.270;9.434;2023-04-01T03:51:00;4.95;;;2.40;;
16662;SDS011;8445;51.270;9.434;2023-04-01T03:53:26;5.07;;;2.25;;
16662;SDS011;8445;51.270;9.434;2023-04-01T03:55:55;6.25;;;2.50;;
16662;SDS011;8445;51.270;9.434;2023-04-01T03:58:20;4.60;;;2.40;;
16662;SDS011;8445;51.270;9.434;2023-04-01T04:00:47;6.30;;;2.10;;
16662;SDS011;8445;51.270;9.434;2023-04-01T04:03:13;5.57;;;2.60;;
16662;SDS011;8445;51.270;9.434;2023-04-01T04:05:45;5.43;;;2.47;;
16662;SDS011;8445;51.270;9.434;2023-04-01T04:08:12;4.93;;;2.33;;
16662;SDS011;8445;51.270;9.434;2023-04-01T04:10:37;7.28;;;2.58;;
16662;SDS011;8445;51.270;9.434;2023-04-01T04:13:03;8.55;;;2.42;;
16662;SDS011;8445;51.270;9.434;2023-04-01T04:15:30;4.72;;;2.50;;
16662;SDS011;8445;51.270;9.434;2023-04-01T04:17:56;6.80;;;3.00;;
16662;SDS011;8445;51.270;9.434;2023-04-01T04:20:21;4.85;;;2.53;;
16662;SDS011;8445;51.270;9.434;2023-04-01T04:22:47;4.55;;;2.45;;
16662;SDS011;8445;51.270;9.434;2023-04-01T04:25:12;4.20;;;2.22;;
16662;SDS011;8445;51.270;9.434;2023-04-01T04:27:38;9.98;;;2.53;;
16662;SDS011;8445;51.270;9.434;2023-04-01T04:30:07;4.10;;;1.85;;
16662;SDS011;8445;51.270;9.434;2023-04-01T04:32:33;5.22;;;2.08;;
16662;SDS011;8445;51.270;9.434;2023-04-01T04:34:59;5.20;;;1.98;;
16662;SDS011;8445;51.270;9.434;2023-04-01T04:37:24;3.30;;;1.90;;
16662;SDS011;8445;51.270;9.434;2023-04-01T04:39:51;5.47;;;2.30;;
16662;SDS011;8445;51.270;9.434;2023-04-01T04:42:17;3.67;;;1.70;;
16662;SDS011;8445;51.270;9.434;2023-04-01T04:44:43;3.65;;;1.73;;
16662;SDS011;8445;51.270;9.434;2023-04-01T04:47:09;3.13;;;1.77;;
16662;SDS011;8445;51.270;9.434;2023-04-01T04:49:35;2.42;;;1.73;;
16662;SDS011;8445;51.270;9.434;2023-04-01T04:52:05;5.57;;;1.65;;
16662;SDS011;8445;51.270;9.434;2023-04-01T04:54:30;2.95;;;1.92;;
16662;SDS011;8445;51.270;9.434;2023-04-01T04:56:58;4.72;;;1.80;;
16662;SDS011;8445;51.270;9.434;2023-04-01T04:59:25;6.72;;;2.20;;
16662;SDS011;8445;51.270;9.434;2023-04-01T05:02:09;4.75;;;1.63;;
16662;SDS011;8445;51.270;9.434;2023-04-01T05:04:35;3.38;;;1.70;;
16662;SDS011;8445;51.270;9.434;2023-04-01T05:07:02;4.80;;;1.88;;
16662;SDS011;8445;51.270;9.434;2023-04-01T05:09:32;4.30;;;1.95;;
16662;SDS011;8445;51.270;9.434;2023-04-01T05:11:59;4.30;;;2.10;;
16662;SDS011;8445;51.270;9.434;2023-04-01T05:14:27;4.38;;;1.83;;
16662;SDS011;8445;51.270;9.434;2023-04-01T05:16:59;4.70;;;2.15;;
16662;SDS011;8445;51.270;9.434;2023-04-01T05:19:27;8.85;;;2.60;;
16662;SDS011;8445;51.270;9.434;2023-04-01T05:21:52;4.50;;;2.00;;
16662;SDS011;8445;51.270;9.434;2023-04-01T05:24:18;6.97;;;2.33;;
16662;SDS011;8445;51.270;9.434;2023-04-01T05:26:45;3.67;;;1.83;;
16662;SDS011;8445;51.270;9.434;2023-04-01T05:29:10;4.03;;;2.05;;
16662;SDS011;8445;51.270;9.434;2023-04-01T05:31:36;4.85;;;2.22;;
16662;SDS011;8445;51.270;9.434;2023-04-01T05:34:03;4.18;;;2.05;;
16662;SDS011;8445;51.270;9.434;2023-04-01T05:36:28;3.10;;;1.63;;
16662;SDS011;8445;51.270;9.434;2023-04-01T05:38:55;2.88;;;1.80;;
16662;SDS011;8445;51.270;9.434;2023-04-01T05:41:25;4.72;;;1.92;;
16662;SDS011;8445;51.270;9.434;2023-04-01T05:43:50;4.95;;;1.90;;
16662;SDS011;8445;51.270;9.434;2023-04-01T05:46:34;4.18;;;2.17;;
16662;SDS011;8445;51.270;9.434;2023-04-01T05:49:10;9.43;;;2.60;;
16662;SDS011;8445;51.270;9.434;2023-04-01T05:51:36;4.07;;;2.03;;
16662;SDS011;8445;51.270;9.434;2023-04-01T05:54:03;3.45;;;2.00;;
16662;SDS011;8445;51.270;9.434;2023-04-01T05:56:30;2.65;;;1.67;;
16662;SDS011;8445;51.270;9.434;2023-04-01T05:58:56;2.88;;;1.67;;
16662;SDS011;8445;51.270;9.434;2023-04-01T06:01:22;7.32;;;2.55;;
16662;SDS011;8445;51.270;9.434;2023-04-01T06:03:48;6.68;;;2.20;;
16662;SDS011;8445;51.270;9.434;2023-04-01T06:06:14;3.20;;;2.35;;
16662;SDS011;8445;51.270;9.434;2023-04-01T06:08:53;2.65;;;1.75;;
16662;SDS011;8445;51.270;9.434;2023-04-01T06:11:32;5.82;;;2.22;;
16662;SDS011;8445;51.270;9.434;2023-04-01T06:34:00;3.92;;;1.90;;
16662;SDS011;8445;51.270;9.434;2023-04-01T06:52:49;2.78;;;1.80;;
16662;SDS011;8445;51.270;9.434;2023-04-01T06:55:43;4.72;;;1.75;;
16662;SDS011;8445;51.270;9.434;2023-04-01T06:58:23;3.67;;;1.75;;
16662;SDS011;8445;51.270;9.434;2023-04-01T07:00:53;6.32;;;2.00;;
16662;SDS011;8445;51.270;9.434;2023-04-01T07:06:10;3.83;;;1.40;;
16662;SDS011;8445;51.270;9.434;2023-04-01T07:08:50;6.25;;;2.08;;
16662;SDS011;8445;51.270;9.434;2023-04-01T07:11:25;4.30;;;1.77;;
16662;SDS011;8445;51.270;9.434;2023-04-01T07:14:25;3.55;;;1.73;;
16662;SDS011;8445;51.270;9.434;2023-04-01T07:22:25;2.63;;;1.55;;
16662;SDS011;8445;51.270;9.434;2023-04-01T07:25:25;3.00;;;1.80;;
16662;SDS011;8445;51.270;9.434;2023-04-01T07:28:34;3.33;;;1.73;;
16662;SDS011;8445;51.270;9.434;2023-04-01T07:33:58;2.70;;;1.80;;
16662;SDS011;8445;51.270;9.434;2023-04-01T07:39:37;4.40;;;1.70;;
16662;SDS011;8445;51.270;9.434;2023-04-01T07:45:19;3.10;;;1.63;;
16662;SDS011;8445;51.270;9.434;2023-04-01T07:55:50;1.67;;;1.58;;
16662;SDS011;8445;51.270;9.434;2023-04-01T08:01:23;2.05;;;1.13;;
16662;SDS011;8445;51.270;9.434;2023-04-01T08:07:17;3.17;;;1.95;;
16662;SDS011;8445;51.270;9.434;2023-04-01T08:10:15;4.05;;;2.35;;
16662;SDS011;8445;51.270;9.434;2023-04-01T08:13:44;2.55;;;1.80;;
16662;SDS011;8445;51.270;9.434;2023-04-01T08:19:43;3.10;;;1.77;;
16662;SDS011;8445;51.270;9.434;2023-04-01T08:23:05;2.70;;;1.67;;
16662;SDS011;8445;51.270;9.434;2023-04-01T08:25:22;2.55;;;1.63;;
16662;SDS011;8445;51.270;9.434;2023-04-01T08:33:44;2.08;;;1.50;;
16662;SDS011;8445;51.270;9.434;2023-04-01T08:36:20;2.20;;;1.40;;
16662;SDS011;8445;51.270;9.434;2023-04-01T08:39:11;2.28;;;1.50;;
16662;SDS011;8445;51.270;9.434;2023-04-01T08:53:48;2.20;;;1.65;;
16662;SDS011;8445;51.270;9.434;2023-04-01T08:59:13;1.48;;;1.30;;
16662;SDS011;8445;51.270;9.434;2023-04-01T09:08:10;1.65;;;1.30;;
16662;SDS011;8445;51.270;9.434;2023-04-01T09:33:29;3.03;;;1.45;;
16662;SDS011;8445;51.270;9.434;2023-04-01T09:38:57;2.83;;;1.10;;
16662;SDS011;8445;51.270;9.434;2023-04-01T09:41:36;4.00;;;1.60;;
16662;SDS011;8445;51.270;9.434;2023-04-01T09:44:44;4.00;;;1.20;;
16662;SDS011;8445;51.270;9.434;2023-04-01T10:07:42;2.13;;;1.35;;
16662;SDS011;8445;51.270;9.434;2023-04-01T10:10:29;1.67;;;1.20;;
16662;SDS011;8445;51.270;9.434;2023-04-01T10:19:30;1.63;;;0.80;;
16662;SDS011;8445;51.270;9.434;2023-04-01T10:33:38;2.00;;;1.23;;
16662;SDS011;8445;51.270;9.434;2023-04-01T10:36:47;3.28;;;1.20;;
16662;SDS011;8445;51.270;9.434;2023-04-01T10:43:05;1.45;;;1.08;;
16662;SDS011;8445;51.270;9.434;2023-04-01T10:51:06;2.20;;;1.13;;
16662;SDS011;8445;51.270;9.434;2023-04-01T11:23:07;0.93;;;0.50;;
16662;SDS011;8445;51.270;9.434;2023-04-01T11:42:10;1.58;;;1.00;;
16662;SDS011;8445;51.270;9.434;2023-04-01T11:44:58;3.90;;;1.02;;
16662;SDS011;8445;51.270;9.434;2023-04-01T11:58:23;1.90;;;0.90;;
16662;SDS011;8445;51.270;9.434;2023-04-01T12:12:39;1.33;;;1.10;;
16662;SDS011;8445;51.270;9.434;2023-04-01T12:15:20;0.85;;;0.60;;
16662;SDS011;8445;51.270;9.434;2023-04-01T12:21:36;2.47;;;0.93;;
16662;SDS011;8445;51.270;9.434;2023-04-01T12:32:09;2.08;;;1.20;;
16662;SDS011;8445;51.270;9.434;2023-04-01T12:34:52;1.88;;;1.35;;
16662;SDS011;8445;51.270;9.434;2023-04-01T12:37:42;2.42;;;1.15;;
16662;SDS011;8445;51.270;9.434;2023-04-01T12:43:41;1.10;;;1.00;;
16662;SDS011;8445;51.270;9.434;2023-04-01T12:46:55;2.40;;;1.10;;
16662;SDS011;8445;51.270;9.434;2023-04-01T12:52:19;2.03;;;1.23;;
16662;SDS011;8445;51.270;9.434;2023-04-01T12:55:18;2.65;;;1.10;;
16662;SDS011;8445;51.270;9.434;2023-04-01T13:20:57;1.25;;;1.15;;
16662;SDS011;8445;51.270;9.434;2023-04-01T13:31:38;1.10;;;1.10;;
16662;SDS011;8445;51.270;9.434;2023-04-01T13:34:36;0.80;;;0.80;;
16662;SDS011;8445;51.270;9.434;2023-04-01T13:42:49;4.40;;;1.60;;
16662;SDS011;8445;51.270;9.434;2023-04-01T14:01:39;1.63;;;1.40;;
16662;SDS011;8445;51.270;9.434;2023-04-01T14:06:51;1.00;;;0.90;;
16662;SDS011;8445;51.270;9.434;2023-04-01T14:29:18;2.38;;;2.00;;
16662;SDS011;8445;51.270;9.434;2023-04-01T14:34:40;2.78;;;1.90;;
16662;SDS011;8445;51.270;9.434;2023-04-01T14:40:27;3.22;;;1.25;;
16662;SDS011;8445;51.270;9.434;2023-04-01T14:43:33;5.07;;;1.20;;
16662;SDS011;8445;51.270;9.434;2023-04-01T14:48:49;1.17;;;1.02;;
16662;SDS011;8445;51.270;9.434;2023-04-01T14:59:10;2.90;;;0.80;;
16662;SDS011;8445;51.270;9.434;2023-04-01T15:02:01;0.80;;;0.80;;
16662;SDS011;8445;51.270;9.434;2023-04-01T15:05:13;1.17;;;0.98;;
16662;SDS011;8445;51.270;9.434;2023-04-01T15:08:07;0.88;;;0.80;;
16662;SDS011;8445;51.270;9.434;2023-04-01T15:10:52;2.47;;;1.20;;
16662;SDS011;8445;51.270;9.434;2023-04-01T15:21:59;2.78;;;2.03;;
16662;SDS011;8445;51.270;9.434;2023-04-01T15:27:49;1.52;;;1.15;;
16662;SDS011;8445;51.270;9.434;2023-04-01T15:41:26;1.45;;;1.23;;
16662;SDS011;8445;51.270;9.434;2023-04-01T15:44:01;2.80;;;1.50;;
16662;SDS011;8445;51.270;9.434;2023-04-01T16:00:47;1.75;;;1.45;;
16662;SDS011;8445;51.270;9.434;2023-04-01T16:19:28;3.25;;;1.80;;
16662;SDS011;8445;51.270;9.434;2023-04-01T16:22:03;2.38;;;1.40;;
16662;SDS011;8445;51.270;9.434;2023-04-01T16:24:45;1.92;;;1.30;;
16662;SDS011;8445;51.270;9.434;2023-04-01T16:27:29;3.10;;;1.90;;
16662;SDS011;8445;51.270;9.434;2023-04-01T16:47:45;2.97;;;1.10;;
16662;SDS011;8445;51.270;9.434;2023-04-01T16:50:19;2.40;;;2.20;;
16662;SDS011;8445;51.270;9.434;2023-04-01T16:52:53;2.72;;;2.50;;
16662;SDS011;8445;51.270;9.434;2023-04-01T16:55:33;1.83;;;1.73;;
16662;SDS011;8445;51.270;9.434;2023-04-01T16:58:07;3.88;;;1.80;;
16662;SDS011;8445;51.270;9.434;2023-04-01T17:00:49;3.92;;;1.90;;
16662;SDS011;8445;51.270;9.434;2023-04-01T17:09:38;1.40;;;1.30;;
16662;SDS011;8445;51.270;9.434;2023-04-01T17:12:24;1.30;;;1.20;;
16662;SDS011;8445;51.270;9.434;2023-04-01T17:18:05;1.52;;;1.42;;
16662;SDS011;8445;51.270;9.434;2023-04-01T17:21:07;2.67;;;1.63;;
16662;SDS011;8445;51.270;9.434;2023-04-01T17:23:35;3.33;;;1.70;;
16662;SDS011;8445;51.270;9.434;2023-04-01T17:31:37;5.75;;;2.53;;
16662;SDS011;8445;51.270;9.434;2023-04-01T17:37:15;3.22;;;2.20;;
16662;SDS011;8445;51.270;9.434;2023-04-01T17:40:00;5.30;;;2.63;;
16662;SDS011;8445;51.270;9.434;2023-04-01T17:42:40;7.78;;;3.45;;
16662;SDS011;8445;51.270;9.434;2023-04-01T17:55:44;5.50;;;3.10;;
16662;SDS011;8445;51.270;9.434;2023-04-01T17:58:28;8.60;;;3.30;;
16662;SDS011;8445;51.270;9.434;2023-04-01T18:01:24;4.90;;;3.70;;
16662;SDS011;8445;51.270;9.434;2023-04-01T18:04:17;6.05;;;4.63;;
16662;SDS011;8445;51.270;9.434;2023-04-01T18:07:01;4.97;;;3.33;;
16662;SDS011;8445;51.270;9.434;2023-04-01T18:12:31;4.35;;;3.95;;
16662;SDS011;8445;51.270;9.434;2023-04-01T18:18:26;3.80;;;2.55;;
16662;SDS011;8445;51.270;9.434;2023-04-01T18:23:47;5.05;;;2.35;;
16662;SDS011;8445;51.270;9.434;2023-04-01T18:26:22;5.10;;;2.72;;
16662;SDS011;8445;51.270;9.434;2023-04-01T18:28:54;3.88;;;2.97;;
16662;SDS011;8445;51.270;9.434;2023-04-01T18:31:25;6.88;;;4.50;;
16662;SDS011;8445;51.270;9.434;2023-04-01T18:37:25;14.63;;;11.18;;
16662;SDS011;8445;51.270;9.434;2023-04-01T18:40:02;7.70;;;6.50;;
16662;SDS011;8445;51.270;9.434;2023-04-01T18:45:32;4.65;;;4.07;;
16662;SDS011;8445;51.270;9.434;2023-04-01T18:50:54;6.60;;;4.22;;
16662;SDS011;8445;51.270;9.434;2023-04-01T18:53:48;4.45;;;3.60;;
16662;SDS011;8445;51.270;9.434;2023-04-01T18:56:28;3.50;;;3.20;;
16662;SDS011;8445;51.270;9.434;2023-04-01T18:59:06;5.32;;;3.72;;
16662;SDS011;8445;51.270;9.434;2023-04-01T19:01:41;5.57;;;3.22;;
16662;SDS011;8445;51.270;9.434;2023-04-01T19:04:33;6.30;;;4.53;;
16662;SDS011;8445;51.270;9.434;2023-04-01T19:21:58;4.88;;;3.55;;
16662;SDS011;8445;51.270;9.434;2023-04-01T19:24:54;3.20;;;2.78;;
16662;SDS011;8445;51.270;9.434;2023-04-01T19:27:48;2.40;;;2.20;;
16662;SDS011;8445;51.270;9.434;2023-04-01T19:33:10;2.05;;;1.63;;
16662;SDS011;8445;51.270;9.434;2023-04-01T19:38:28;3.47;;;1.80;;
16662;SDS011;8445;51.270;9.434;2023-04-01T19:49:06;2.83;;;2.05;;
16662;SDS011;8445;51.270;9.434;2023-04-01T19:51:40;2.88;;;2.67;;
16662;SDS011;8445;51.270;9.434;2023-04-01T19:59:53;3.83;;;3.22;;
16662;SDS011;8445;51.270;9.434;2023-04-01T20:02:37;4.10;;;3.60;;
16662;SDS011;8445;51.270;9.434;2023-04-01T20:08:00;4.30;;;2.90;;
16662;SDS011;8445;51.270;9.434;2023-04-01T20:10:32;3.67;;;3.38;;
16662;SDS011;8445;51.270;9.434;2023-04-01T20:13:24;5.38;;;4.00;;
16662;SDS011;8445;51.270;9.434;2023-04-01T20:15:59;4.53;;;3.70;;
16662;SDS011;8445;51.270;9.434;2023-04-01T20:23:54;4.35;;;3.80;;
16662;SDS011;8445;51.270;9.434;2023-04-01T20:26:29;3.83;;;3.42;;
16662;SDS011;8445;51.270;9.434;2023-04-01T20:31:43;3.78;;;3.40;;
16662;SDS011;8445;51.270;9.434;2023-04-01T20:34:26;5.88;;;3.45;;
16662;SDS011;8445;51.270;9.434;2023-04-01T20:39:57;4.32;;;3.90;;
16662;SDS011;8445;51.270;9.434;2023-04-01T20:56:27;4.68;;;4.28;;
16662;SDS011;8445;51.270;9.434;2023-04-01T21:02:17;5.47;;;4.95;;
16662;SDS011;8445;51.270;9.434;2023-04-01T21:07:56;5.18;;;4.68;;
16662;SDS011;8445;51.270;9.434;2023-04-01T21:10:41;5.05;;;4.63;;
16662;SDS011;8445;51.270;9.434;2023-04-01T21:16:08;3.47;;;3.08;;
16662;SDS011;8445;51.270;9.434;2023-04-01T21:21:20;3.22;;;3.03;;
16662;SDS011;8445;51.270;9.434;2023-04-01T21:29:44;2.60;;;2.35;;
16662;SDS011;8445;51.270;9.434;2023-04-01T21:35:48;3.05;;;2.22;;
16662;SDS011;8445;51.270;9.434;2023-04-01T21:44:38;4.53;;;1.50;;
16662;SDS011;8445;51.270;9.434;2023-04-01T21:52:37;2.20;;;1.95;;
16662;SDS011;8445;51.270;9.434;2023-04-01T22:05:56;1.80;;;1.55;;
16662;SDS011;8445;51.270;9.434;2023-04-01T22:14:09;1.20;;;1.00;;
16662;SDS011;8445;51.270;9.434;2023-04-01T22:16:59;1.10;;;1.10;;
16662;SDS011;8445;51.270;9.434;2023-04-01T22:19:35;1.40;;;1.30;;
16662;SDS011;8445;51.270;9.434;2023-04-01T22:30:22;0.98;;;0.98;;
16662;SDS011;8445;51.270;9.434;2023-04-01T22:32:50;1.30;;;1.20;;
16662;SDS011;8445;51.270;9.434;2023-04-01T22:41:28;1.50;;;1.40;;
16662;SDS011;8445;51.270;9.434;2023-04-01T22:43:56;1.50;;;1.40;;
16662;SDS011;8445;51.270;9.434;2023-04-01T22:46:26;1.25;;;1.25;;
16662;SDS011;8445;51.270;9.434;2023-04-01T22:51:49;1.90;;;1.80;;
16662;SDS011;8445;51.270;9.434;2023-04-01T22:54:29;1.70;;;1.60;;
16662;SDS011;8445;51.270;9.434;2023-04-01T23:02:20;1.70;;;1.60;;
16662;SDS011;8445;51.270;9.434;2023-04-01T23:04:52;1.50;;;1.40;;
16662;SDS011;8445;51.270;9.434;2023-04-01T23:07:28;1.93;;;1.60;;
16662;SDS011;8445;51.270;9.434;2023-04-01T23:09:56;1.70;;;1.60;;
16662;SDS011;8445;51.270;9.434;2023-04-01T23:12:26;1.43;;;1.33;;
16662;SDS011;8445;51.270;9.434;2023-04-01T23:15:00;1.63;;;1.53;;
16662;SDS011;8445;51.270;9.434;2023-04-01T23:20:13;1.70;;;1.60;;
16662;SDS011;8445;51.270;9.434;2023-04-01T23:25:27;1.83;;;1.73;;
16662;SDS011;8445;51.270;9.434;2023-04-01T23:28:08;1.50;;;1.40;;
16662;SDS011;8445;51.270;9.434;2023-04-01T23:33:28;1.83;;;1.40;;
16662;SDS011;8445;51.270;9.434;2023-04-01T23:38:32;0.90;;;0.90;;
16662;SDS011;8445;51.270;9.434;2023-04-01T23:41:00;1.40;;;1.30;;
16662;SDS011;8445;51.270;9.434;2023-04-01T23:43:48;1.40;;;1.30;;
16662;SDS011;8445;51.270;9.434;2023-04-01T23:46:17;1.10;;;0.97;;
16662;SDS011;8445;51.270;9.434;2023-04-01T23:48:43;1.10;;;1.10;;
16662;SDS011;8445;51.270;9.434;2023-04-01T23:51:13;0.90;;;0.90;;
16662;SDS011;8445;51.270;9.434;2023-04-01T23:53:44;1.08;;;1.08;;
16662;SDS011;8445;51.270;9.434;2023-04-01T23:56:11;0.90;;;0.90;;
